WetterOnline ( https://www.wetteronline.de )

Wetter aktuell Höxter

Aktuelles Wetter: Lügde-Paenbruch (260m)

6-stündlich | Neueste Meldungen
Ortszeit Temperatur Wetter
Di, 28.06. 20:00 21.7° C wolkenlos
Di, 28.06. 14:00 21.5° C fast wolkenlos
Di, 28.06. 8:00 14.6° C wolkenlos
Di, 28.06. 2:00 14.1° C bewölkt
Mo, 27.06. 20:00 17.6° C bewölkt
Mo, 27.06. 14:00 22.9° C wolkig
Mo, 27.06. 8:00 17.6° C bewölkt
Mo, 27.06. 2:00 16.9° C bewölkt
Ortszeit Temperatur Wetter
Di, 28.06. 23:00 17.1° C wolkig
Di, 28.06. 22:50 17.1° C wolkig
Di, 28.06. 22:40 16.2° C bewölkt
Di, 28.06. 22:30 18.1° C leicht bewölkt
Di, 28.06. 22:20 18.1° C leicht bewölkt
Di, 28.06. 22:10 18.9° C bewölkt
Di, 28.06. 22:00 18.7° C wolkig
Di, 28.06. 21:30 19.2° C wolkig
Di, 28.06. 21:00 21.1° C leicht bewölkt
Di, 28.06. 20:30 21.6° C leicht bewölkt
Di, 28.06. 20:00 21.7° C wolkenlos
Ortszeit Relative Feuchte Sichtweite
Di, 28.06. 20:00 43% 65 km
Di, 28.06. 14:00 42% 60 km
Di, 28.06. 8:00 83% 14 km
Di, 28.06. 2:00 84% 30 km
Mo, 27.06. 20:00 88% 10 km
Mo, 27.06. 14:00 66% 60 km
Mo, 27.06. 8:00 90% 35 km
Mo, 27.06. 2:00 82% 50 km
Ortszeit Relative Feuchte Sichtweite
Di, 28.06. 23:00 61% >70 km
Di, 28.06. 22:50 61% -
Di, 28.06. 22:40 64% -
Di, 28.06. 22:30 56% >70 km
Di, 28.06. 22:20 56% -
Di, 28.06. 22:10 53% -
Di, 28.06. 22:00 55% >70 km
Di, 28.06. 21:30 57% >70 km
Di, 28.06. 21:00 48% 60 km
Di, 28.06. 20:30 45% >70 km
Di, 28.06. 20:00 43% 65 km
Ortszeit Niederschlagsmenge Niederschlagsart
Di, 28.06. 20:00 0.0 l/m2 in 12 Std. -
Di, 28.06. 14:00 0.0 l/m2 in 6 Std. -
Di, 28.06. 8:00 0.1 l/m2 in 12 Std. -
Di, 28.06. 2:00 0.1 l/m2 in 6 Std. Regen
Mo, 27.06. 20:00 0.1 l/m2 in 12 Std. Regen
Mo, 27.06. 14:00 0.0 l/m2 in 6 Std. -
Mo, 27.06. 8:00 0.1 l/m2 in 12 Std. Regen
Mo, 27.06. 2:00 0.1 l/m2 in 6 Std. Regen
Ortszeit Niederschlagsmenge Niederschlagsart
Di, 28.06. 23:00 0.0 l/m2 in 1 Std. -
Di, 28.06. 22:50 keine Meldung -
Di, 28.06. 22:40 keine Meldung -
Di, 28.06. 22:30 0.0 l/m2 in 1 Std. -
Di, 28.06. 22:20 keine Meldung -
Di, 28.06. 22:10 keine Meldung -
Di, 28.06. 22:00 0.0 l/m2 in 1 Std. -
Di, 28.06. 21:30 0.0 l/m2 in 1 Std. -
Di, 28.06. 21:00 0.0 l/m2 in 1 Std. -
Di, 28.06. 20:30 0.0 l/m2 in 1 Std. -
Di, 28.06. 20:00 0.0 l/m2 in 1 Std. -
Ortszeit Stärke Spitze Richtung
km/h Bft. km/h Grad Sektor
Di, 28.06. 20:00 9 2 22 100° O
Di, 28.06. 14:00 6 1 22 130° SO
Di, 28.06. 8:00 11 2 32 250° W
Di, 28.06. 2:00 18 3 36 260° W
Mo, 27.06. 20:00 7 2 29 290° W
Mo, 27.06. 14:00 9 2 26 240° SW
Mo, 27.06. 8:00 4 1 25 70° O
Mo, 27.06. 2:00 11 2 32 290° W
Ortszeit Stärke Spitze Richtung
km/h Bft. km/h Grad Sektor
Di, 28.06. 23:00 9 2 17 60° NO
Di, 28.06. 22:50 9 2 - 60° NO
Di, 28.06. 22:40 7 2 - 50° NO
Di, 28.06. 22:30 9 2 17 50° NO
Di, 28.06. 22:20 9 2 - 50° NO
Di, 28.06. 22:10 11 2 - 50° NO
Di, 28.06. 22:00 9 2 15 50° NO
Di, 28.06. 21:30 7 2 11 40° NO
Di, 28.06. 21:00 7 2 14 40° NO
Di, 28.06. 20:30 7 2 14 70° O
Di, 28.06. 20:00 9 2 19 100° O
Ortszeit Untergrenze Bedeckung Gattung
total tief tief mittel hoch
Di, 28.06. 20:00 - 0/8 0/8 - - -
Di, 28.06. 14:00 9000 m 2/8 0/8 - - -
Di, 28.06. 8:00 - 0/8 0/8 - - -
Di, 28.06. 2:00 630 m 7/8 7/8 - - -
Mo, 27.06. 20:00 2400 m 8/8 4/8 - - -
Mo, 27.06. 14:00 600 m 6/8 5/8 - - -
Mo, 27.06. 8:00 3300 m 8/8 7/8 - - -
Mo, 27.06. 2:00 3600 m 7/8 7/8 - - -
Ortszeit Bedeckungsgrad in Achtel und Wolkenuntergrenze
Di, 28.06. 23:00 6(8700m) 8(10500m) 8(10500m)
Di, 28.06. 22:50 6(8700m) 8(10500m) 8(10500m)
Di, 28.06. 22:40 7
Di, 28.06. 22:30 5(8400m)
Di, 28.06. 22:20 5(8400m)
Di, 28.06. 22:10 7
Di, 28.06. 22:00 8(8700m)
Di, 28.06. 21:30 7(9000m) 8(9000m)
Di, 28.06. 21:00 7(9000m)
Di, 28.06. 20:30 5(9000m)
Di, 28.06. 20:00 keine Wolken
Ortszeit Luftdruck NN (hPa) Tendenz (hPa in 3 Std.)
Di, 28.06. 20:00 1019 - 1,1
Di, 28.06. 14:00 1021 - 0,8
Di, 28.06. 8:00 1023 + 0,6
Di, 28.06. 2:00 1021 + 1,1
Mo, 27.06. 20:00 1017 + 1,4
Mo, 27.06. 14:00 1014 + 0,1
Mo, 27.06. 8:00 1014 - 0,6
Mo, 27.06. 2:00 1014 - 0,8
Ortszeit Luftdruck NN (hPa) Tendenz (hPa in 3 Std.)
Di, 28.06. 23:00 1019 0,0
Di, 28.06. 22:50 1019 keine Meldung
Di, 28.06. 22:40 1019 keine Meldung
Di, 28.06. 22:30 1019 - 0,2
Di, 28.06. 22:20 1019 keine Meldung
Di, 28.06. 22:10 1019 keine Meldung
Di, 28.06. 22:00 1019 - 0,3
Di, 28.06. 21:30 1019 - 0,7
Di, 28.06. 21:00 1019 - 0,8
Di, 28.06. 20:30 1019 - 0,9
Di, 28.06. 20:00 1019 - 1,1
Ortszeit Schneehöhe (cm)
Di, 28.06. 20:00 0
Di, 28.06. 14:00 0
Di, 28.06. 8:00 0
Di, 28.06. 2:00 0
Mo, 27.06. 20:00 0
Mo, 27.06. 14:00 0
Mo, 27.06. 8:00 0
Mo, 27.06. 2:00 0
Ortszeit Schneehöhe (cm)
Di, 28.06. 23:00 0
Di, 28.06. 22:50 0
Di, 28.06. 22:40 0
Di, 28.06. 22:30 0
Di, 28.06. 22:20 0
Di, 28.06. 22:10 0
Di, 28.06. 22:00 0
Di, 28.06. 21:30 0
Di, 28.06. 21:00 0
Di, 28.06. 20:30 0
Di, 28.06. 20:00 0
Link zu dieser Seite / Seite empfehlen

Das Wetter in ...